Time;durP1;ratioP1;P1;durP2;ratioP2;P2;SDS_P1;SDS_P2;PMS_P1;PMS_P2;Temp;Humidity;BMP_temperature;BMP_pressure;BME280_temperature;BME280_humidity;BME280_pressure;Samples;Min_cycle;Max_cycle;Signal;HPM_P1;HPM_P2
2022/11/05 00:10:29;;;;;;;0.20;0.20;;;8.10;99.90;;;;;;5083601;28;20999;-71
2022/11/05 00:18:28;;;;;;;0.20;0.20;;;7.90;99.90;;;;;;5081042;28;20044;-71
2022/11/05 00:20:53;;;;;;;0.15;0.15;;;7.80;99.90;;;;;;5075092;28;20047;-71
2022/11/05 00:26:06;;;;;;;0.20;0.20;;;7.80;99.90;;;;;;5083432;28;20052;-71
2022/11/05 00:28:35;;;;;;;0.10;0.10;;;7.80;99.90;;;;;;5079930;28;20081;-71
2022/11/05 00:31:09;;;;;;;0.20;0.20;;;7.70;99.90;;;;;;5077087;28;20052;-71
2022/11/05 00:33:35;;;;;;;0.22;0.22;;;7.70;99.90;;;;;;5081501;28;20040;-71
2022/11/05 00:36:02;;;;;;;0.20;0.20;;;7.70;99.90;;;;;;5081598;28;20113;-72
2022/11/05 00:38:29;;;;;;;0.15;0.15;;;7.70;99.90;;;;;;5074610;28;20094;-71
2022/11/05 00:40:54;;;;;;;0.20;0.20;;;7.70;99.90;;;;;;5071964;28;20148;-70
2022/11/05 00:46:04;;;;;;;0.20;0.20;;;7.60;99.90;;;;;;5087124;28;20056;-71
2022/11/05 00:51:14;;;;;;;0.20;0.20;;;8.10;99.90;;;;;;5078146;28;20045;-71
2022/11/05 00:53:39;;;;;;;0.20;0.20;;;7.60;99.90;;;;;;5079955;28;20044;-71
2022/11/05 00:56:05;;;;;;;0.20;0.20;;;7.70;99.90;;;;;;5079308;28;20071;-71
2022/11/05 00:58:31;;;;;;;0.20;0.20;;;7.60;99.90;;;;;;5083002;28;20052;-71
2022/11/05 01:00:58;;;;;;;0.20;0.20;;;7.60;99.90;;;;;;5089236;28;20207;-71
2022/11/05 01:03:28;;;;;;;0.20;0.20;;;7.60;99.90;;;;;;5078354;28;20094;-71
2022/11/05 01:05:56;;;;;;;0.20;0.20;;;7.60;99.90;;;;;;5088036;28;20051;-71
2022/11/05 01:08:24;;;;;;;0.20;0.20;;;8.00;99.90;;;;;;5078726;28;20606;-72
2022/11/05 01:10:55;;;;;;;0.10;0.10;;;7.60;99.90;;;;;;5084465;28;20149;-71
2022/11/05 01:13:24;;;;;;;0.17;0.17;;;7.60;99.90;;;;;;5077586;28;20032;-71
2022/11/05 01:15:50;;;;;;;0.20;0.20;;;7.60;99.90;;;;;;5086892;28;20471;-71
2022/11/05 01:18:17;;;;;;;0.10;0.10;;;7.60;99.90;;;;;;5073087;28;20037;-71
2022/11/05 01:20:43;;;;;;;0.20;0.20;;;7.60;99.90;;;;;;5081964;28;20047;-71
2022/11/05 01:23:09;;;;;;;0.10;0.10;;;7.60;99.90;;;;;;5080990;28;20041;-71
2022/11/05 01:25:34;;;;;;;0.20;0.20;;;7.60;99.90;;;;;;5087719;28;20051;-71
2022/11/05 01:28:01;;;;;;;0.20;0.20;;;7.60;99.90;;;;;;5074693;28;20108;-71
2022/11/05 01:30:27;;;;;;;0.20;0.20;;;7.60;99.90;;;;;;5088609;28;20127;-71
2022/11/05 01:32:52;;;;;;;0.20;0.20;;;7.60;99.90;;;;;;5091945;28;20135;-71
2022/11/05 01:35:18;;;;;;;0.15;0.15;;;8.20;99.90;;;;;;5080452;28;20054;-71
2022/11/05 01:37:44;;;;;;;0.17;0.17;;;7.60;99.90;;;;;;5082986;28;20036;-71
2022/11/05 01:40:12;;;;;;;0.13;0.13;;;8.00;99.90;;;;;;5076404;28;20040;-71
2022/11/05 01:42:38;;;;;;;0.20;0.20;;;7.60;99.90;;;;;;5084896;28;20436;-71
2022/11/05 01:45:13;;;;;;;0.20;0.20;;;7.60;99.90;;;;;;5075814;28;20048;-71
2022/11/05 01:47:51;;;;;;;0.10;0.10;;;7.60;99.90;;;;;;5073414;28;20535;-71
2022/11/05 01:50:43;;;;;;;0.20;0.20;;;7.60;99.90;;;;;;5081388;28;20089;-71
2022/11/05 01:53:09;;;;;;;0.20;0.20;;;7.60;99.90;;;;;;5082356;28;20106;-71
2022/11/05 01:55:39;;;;;;;0.20;0.20;;;7.70;99.90;;;;;;5078929;28;20458;-71
2022/11/05 01:58:08;;;;;;;0.20;0.20;;;8.00;99.90;;;;;;5074312;28;20507;-71
2022/11/05 02:00:35;;;;;;;0.20;0.20;;;7.60;99.90;;;;;;5080800;28;20048;-71
2022/11/05 02:03:01;;;;;;;0.20;0.20;;;7.60;99.90;;;;;;5087401;28;20048;-71
2022/11/05 02:05:27;;;;;;;0.13;0.13;;;7.60;99.90;;;;;;5080455;28;20132;-71
2022/11/05 02:07:53;;;;;;;0.10;0.10;;;7.60;99.90;;;;;;5074547;28;20051;-71
2022/11/05 02:10:20;;;;;;;0.20;0.20;;;7.60;99.90;;;;;;5080567;28;20115;-71
2022/11/05 02:12:49;;;;;;;0.20;0.20;;;7.90;99.90;;;;;;5089633;28;20036;-71
2022/11/05 02:15:23;;;;;;;0.20;0.20;;;7.60;99.90;;;;;;5083325;28;20044;-71
2022/11/05 02:18:11;;;;;;;0.20;0.20;;;7.90;99.90;;;;;;5079692;28;20055;-71
2022/11/05 02:21:26;;;;;;;0.20;0.20;;;7.60;99.90;;;;;;5079619;28;20066;-70
2022/11/05 02:24:23;;;;;;;0.10;0.10;;;7.60;99.90;;;;;;5078186;28;20050;-70
2022/11/05 02:27:11;;;;;;;0.20;0.20;;;7.50;99.90;;;;;;5075748;28;20051;-70
2022/11/05 02:29:46;;;;;;;0.20;0.20;;;7.50;99.90;;;;;;5066833;28;20079;-70
2022/11/05 02:32:29;;;;;;;0.10;0.10;;;7.50;99.90;;;;;;5114527;27;20101;-70
2022/11/05 02:35:16;;;;;;;0.20;0.20;;;7.60;99.90;;;;;;5087835;28;20729;-70
2022/11/05 02:37:51;;;;;;;0.20;0.20;;;7.50;99.90;;;;;;5091020;28;20040;-70
2022/11/05 02:40:30;;;;;;;0.20;0.20;;;7.80;99.90;;;;;;5085699;28;20051;-70
2022/11/05 02:43:08;;;;;;;0.20;0.20;;;7.50;99.90;;;;;;5087779;28;20071;-70
2022/11/05 02:45:58;;;;;;;0.20;0.20;;;7.50;99.90;;;;;;5080430;28;20044;-70
2022/11/05 02:48:51;;;;;;;0.20;0.20;;;7.50;99.90;;;;;;5084490;28;20076;-70
2022/11/05 02:51:42;;;;;;;0.20;0.20;;;7.50;99.90;;;;;;5086124;28;20750;-70
2022/11/05 02:54:31;;;;;;;0.20;0.20;;;7.50;99.90;;;;;;5072263;28;20415;-70
2022/11/05 02:56:58;;;;;;;0.20;0.20;;;7.50;99.90;;;;;;5073289;28;20055;-70
2022/11/05 02:59:23;;;;;;;0.13;0.13;;;7.50;99.90;;;;;;5082271;28;20032;-70
2022/11/05 03:01:51;;;;;;;0.20;0.20;;;6.90;99.90;;;;;;5082025;28;20054;-70
2022/11/05 03:04:20;;;;;;;0.20;0.20;;;7.80;99.90;;;;;;5079087;28;20406;-70
2022/11/05 03:07:07;;;;;;;0.20;0.20;;;7.50;99.90;;;;;;5085866;28;20092;-71
2022/11/05 03:09:42;;;;;;;0.20;0.20;;;7.50;99.90;;;;;;5081689;28;20069;-70
2022/11/05 03:12:46;;;;;;;0.20;0.20;;;7.50;99.90;;;;;;5090604;28;20044;-71
2022/11/05 03:15:40;;;;;;;0.20;0.20;;;7.50;99.90;;;;;;5075282;28;20124;-71
2022/11/05 03:18:37;;;;;;;0.20;0.20;;;7.50;99.90;;;;;;5082007;28;20497;-70
2022/11/05 03:21:20;;;;;;;0.13;0.13;;;7.50;99.90;;;;;;5083884;28;20044;-70
2022/11/05 03:23:55;;;;;;;0.20;0.20;;;7.50;99.90;;;;;;5075367;28;20041;-70
2022/11/05 03:26:34;;;;;;;0.20;0.20;;;7.50;99.90;;;;;;5076331;28;20059;-71
2022/11/05 03:29:15;;;;;;;0.10;0.10;;;7.50;99.90;;;;;;5072532;28;20052;-71
2022/11/05 03:31:44;;;;;;;0.10;0.10;;;7.50;99.90;;;;;;5080459;28;20134;-71
2022/11/05 03:34:13;;;;;;;0.10;0.10;;;7.50;99.90;;;;;;5082951;28;20071;-72
2022/11/05 03:36:53;;;;;;;0.10;0.10;;;8.20;99.90;;;;;;5083935;28;20087;-71
2022/11/05 03:39:32;;;;;;;0.17;0.17;;;7.50;99.90;;;;;;5087013;28;20046;-71
2022/11/05 03:41:59;;;;;;;0.20;0.20;;;7.50;99.90;;;;;;5069077;28;20455;-71
2022/11/05 03:44:30;;;;;;;0.10;0.10;;;7.60;99.90;;;;;;5069149;28;20427;-71
2022/11/05 03:47:03;;;;;;;0.10;0.10;;;7.50;99.90;;;;;;5108336;27;20121;-71
2022/11/05 03:49:35;;;;;;;0.20;0.20;;;7.90;99.90;;;;;;5068916;28;20396;-72
2022/11/05 03:52:06;;;;;;;0.10;0.10;;;7.80;99.90;;;;;;5067849;28;20037;-71
2022/11/05 03:54:33;;;;;;;0.10;0.10;;;7.50;99.90;;;;;;5073833;28;20047;-71
2022/11/05 03:57:09;;;;;;;0.20;0.20;;;7.70;99.90;;;;;;5068611;28;20101;-70
2022/11/05 03:59:41;;;;;;;0.20;0.20;;;7.50;99.90;;;;;;5079151;28;20036;-71
2022/11/05 04:02:09;;;;;;;0.20;0.20;;;7.50;99.90;;;;;;5086096;28;20048;-70
2022/11/05 04:04:34;;;;;;;0.20;0.20;;;7.70;99.90;;;;;;5076108;28;20614;-71
2022/11/05 04:15:13;;;;;;;0.20;0.20;;;7.70;99.90;;;;;;5073013;28;20102;-71
2022/11/05 04:17:38;;;;;;;0.20;0.20;;;7.70;99.90;;;;;;5073676;28;20480;-71
2022/11/05 04:25:42;;;;;;;0.10;0.10;;;8.30;99.90;;;;;;5107602;28;20048;-71
2022/11/05 04:28:08;;;;;;;0.10;0.10;;;7.80;99.90;;;;;;5076498;28;20058;-71
2022/11/05 04:30:33;;;;;;;0.10;0.10;;;7.80;99.90;;;;;;5072984;28;20045;-71
2022/11/05 04:33:03;;;;;;;0.20;0.20;;;7.80;99.90;;;;;;5073175;28;20400;-70
2022/11/05 04:35:42;;;;;;;0.20;0.20;;;7.70;99.90;;;;;;5074965;28;20045;-72
2022/11/05 04:38:13;;;;;;;0.10;0.10;;;7.80;99.90;;;;;;5081073;28;20438;-71
2022/11/05 04:40:39;;;;;;;0.20;0.20;;;7.80;99.90;;;;;;5079131;28;20063;-71
2022/11/05 04:43:06;;;;;;;0.10;0.10;;;7.80;99.90;;;;;;5082296;28;20395;-71
2022/11/05 04:45:34;;;;;;;0.20;0.20;;;7.80;99.90;;;;;;5075200;28;20051;-71
2022/11/05 04:48:03;;;;;;;0.20;0.20;;;7.80;99.90;;;;;;5078065;28;20040;-71
2022/11/05 04:50:30;;;;;;;0.10;0.10;;;7.80;99.90;;;;;;5072726;28;20101;-71
2022/11/05 04:52:56;;;;;;;0.20;0.20;;;7.80;99.90;;;;;;5086748;28;20123;-71
2022/11/05 04:55:22;;;;;;;0.17;0.17;;;7.70;99.90;;;;;;5109616;28;20186;-71
2022/11/05 04:57:49;;;;;;;0.10;0.10;;;8.10;99.90;;;;;;5067243;28;20109;-71
2022/11/05 05:00:15;;;;;;;0.20;0.20;;;7.70;99.90;;;;;;5068866;28;20064;-71
2022/11/05 05:02:41;;;;;;;0.10;0.10;;;7.70;99.90;;;;;;5083565;28;20494;-70
2022/11/05 05:05:07;;;;;;;0.20;0.20;;;7.70;99.90;;;;;;5081502;28;20123;-70
2022/11/05 05:07:33;;;;;;;0.13;0.13;;;7.70;99.90;;;;;;5075007;28;20407;-70
2022/11/05 05:10:00;;;;;;;0.20;0.20;;;7.70;99.90;;;;;;5082001;28;20051;-71
2022/11/05 05:12:26;;;;;;;0.20;0.20;;;7.60;99.90;;;;;;5080815;28;20085;-71
2022/11/05 05:14:51;;;;;;;0.20;0.20;;;7.70;99.90;;;;;;5090504;28;20203;-70
2022/11/05 05:17:17;;;;;;;0.20;0.20;;;7.70;99.90;;;;;;5088188;28;20048;-70
2022/11/05 05:22:27;;;;;;;0.20;0.20;;;8.00;99.90;;;;;;5083885;28;20043;-70
2022/11/05 05:24:56;;;;;;;0.20;0.20;;;8.00;99.90;;;;;;5087425;28;20079;-71
2022/11/05 05:27:23;;;;;;;0.20;0.20;;;7.70;99.90;;;;;;5086376;28;20091;-70
2022/11/05 05:29:49;;;;;;;0.20;0.20;;;7.70;99.90;;;;;;5079794;28;20609;-70
2022/11/05 05:32:15;;;;;;;0.20;0.20;;;7.70;99.90;;;;;;5083443;28;20082;-71
2022/11/05 05:34:43;;;;;;;0.10;0.10;;;7.70;99.90;;;;;;5088329;28;20499;-70
2022/11/05 05:37:08;;;;;;;0.20;0.20;;;7.90;99.90;;;;;;5087701;28;20075;-71
2022/11/05 05:39:34;;;;;;;0.20;0.20;;;7.60;99.90;;;;;;5079519;28;20047;-70
2022/11/05 05:42:00;;;;;;;0.20;0.20;;;7.60;99.90;;;;;;5089518;28;20507;-71
2022/11/05 05:44:25;;;;;;;0.20;0.20;;;7.50;99.90;;;;;;5083566;28;20048;-71
2022/11/05 05:46:53;;;;;;;0.20;0.20;;;8.10;99.90;;;;;;5082194;28;20036;-71
2022/11/05 05:49:19;;;;;;;0.20;0.20;;;8.20;99.90;;;;;;5073403;28;20399;-71
2022/11/05 05:51:46;;;;;;;0.20;0.20;;;7.50;99.90;;;;;;5076498;28;20056;-71
2022/11/05 05:54:12;;;;;;;0.20;0.20;;;7.40;99.90;;;;;;5078907;28;20032;-71
2022/11/05 05:56:38;;;;;;;0.13;0.13;;;7.40;99.90;;;;;;5078605;28;20036;-71
2022/11/05 05:59:09;;;;;;;0.20;0.20;;;7.50;99.90;;;;;;5088049;28;20037;-71
2022/11/05 06:01:35;;;;;;;0.20;0.20;;;7.50;99.90;;;;;;5084123;28;20122;-71
2022/11/05 06:04:00;;;;;;;0.20;0.20;;;7.30;99.90;;;;;;5086199;28;20131;-70
2022/11/05 06:06:26;;;;;;;0.20;0.20;;;7.30;99.90;;;;;;5087331;28;20059;-71
2022/11/05 06:08:53;;;;;;;0.20;0.20;;;7.20;99.90;;;;;;5088574;28;20051;-71
2022/11/05 06:11:18;;;;;;;0.20;0.20;;;7.40;99.90;;;;;;5087691;28;20518;-71
2022/11/05 06:13:44;;;;;;;0.20;0.20;;;7.40;99.90;;;;;;5089441;28;20048;-71
2022/11/05 06:16:09;;;;;;;0.20;0.20;;;7.70;99.90;;;;;;5087465;28;20044;-71
2022/11/05 06:18:35;;;;;;;0.20;0.20;;;7.20;99.90;;;;;;5073366;28;20040;-70
2022/11/05 06:21:02;;;;;;;0.10;0.10;;;7.20;99.90;;;;;;5079282;28;20050;-71
2022/11/05 06:23:36;;;;;;;0.28;0.28;;;7.10;99.90;;;;;;5086292;28;20044;-70
2022/11/05 06:26:04;;;;;;;0.20;0.20;;;7.40;99.90;;;;;;5074455;28;20041;-71
2022/11/05 06:28:30;;;;;;;0.13;0.13;;;7.10;99.90;;;;;;5108141;27;20056;-72
2022/11/05 06:30:56;;;;;;;0.15;0.15;;;7.10;99.90;;;;;;5076107;28;20097;-72
2022/11/05 06:33:23;;;;;;;0.20;0.20;;;7.10;99.90;;;;;;5090417;28;20040;-70
2022/11/05 06:35:48;;;;;;;0.20;0.20;;;7.10;99.90;;;;;;5086806;28;20044;-71
2022/11/05 06:38:17;;;;;;;0.20;0.20;;;7.10;99.90;;;;;;5100851;28;20044;-70
2022/11/05 06:40:43;;;;;;;0.20;0.20;;;7.90;99.90;;;;;;5080937;28;20083;-71
2022/11/05 06:43:09;;;;;;;0.20;0.20;;;7.70;99.90;;;;;;5074134;28;20569;-70
2022/11/05 06:45:38;;;;;;;0.20;0.20;;;7.60;99.90;;;;;;5082741;28;20070;-70
2022/11/05 06:48:03;;;;;;;0.20;0.20;;;7.00;99.90;;;;;;5073949;28;20044;-71
2022/11/05 06:50:29;;;;;;;0.20;0.20;;;7.00;99.90;;;;;;5082545;28;20070;-71
2022/11/05 06:53:02;;;;;;;0.20;0.20;;;7.00;99.90;;;;;;5086742;28;20101;-70
2022/11/05 06:55:29;;;;;;;0.20;0.20;;;7.00;99.90;;;;;;5081467;28;20051;-71
2022/11/05 06:57:56;;;;;;;0.20;0.20;;;7.70;99.90;;;;;;5080515;28;20043;-71
2022/11/05 07:00:22;;;;;;;0.20;0.20;;;6.90;99.90;;;;;;5087135;28;20468;-70
2022/11/05 07:02:48;;;;;;;0.20;0.20;;;7.70;99.90;;;;;;5088592;28;20119;-71
2022/11/05 07:05:14;;;;;;;0.20;0.20;;;7.30;99.90;;;;;;5088010;28;20484;-71
2022/11/05 07:07:41;;;;;;;0.20;0.20;;;6.90;99.90;;;;;;5089187;28;20047;-71
2022/11/05 07:10:11;;;;;;;0.20;0.20;;;7.40;99.90;;;;;;5085586;28;20052;-71
2022/11/05 07:12:37;;;;;;;0.20;0.20;;;6.90;99.90;;;;;;5088819;28;20452;-71
2022/11/05 07:15:06;;;;;;;0.20;0.20;;;6.90;99.90;;;;;;5083993;28;20123;-71
2022/11/05 07:17:32;;;;;;;0.20;0.20;;;6.90;99.90;;;;;;5071065;28;20086;-71
2022/11/05 07:20:00;;;;;;;0.20;0.20;;;7.00;99.90;;;;;;5082521;28;20079;-72
2022/11/05 07:22:26;;;;;;;0.20;0.20;;;7.00;99.90;;;;;;5074595;28;20059;-70
2022/11/05 07:24:52;;;;;;;0.20;0.20;;;7.00;99.90;;;;;;5070832;28;20040;-71
2022/11/05 07:27:17;;;;;;;0.20;0.20;;;7.20;99.90;;;;;;5079743;28;20043;-71
2022/11/05 07:29:43;;;;;;;0.20;0.20;;;7.00;99.90;;;;;;5073900;28;20048;-71
2022/11/05 07:32:08;;;;;;;0.20;0.20;;;7.10;99.90;;;;;;5077468;28;20044;-70
2022/11/05 07:34:34;;;;;;;0.20;0.20;;;7.10;99.90;;;;;;5079274;28;20086;-71
2022/11/05 07:37:02;;;;;;;0.20;0.20;;;7.10;99.90;;;;;;5077308;28;20079;-72
2022/11/05 07:39:28;;;;;;;0.20;0.20;;;7.90;99.90;;;;;;5076327;28;20455;-69
2022/11/05 07:41:54;;;;;;;0.20;0.20;;;7.10;99.90;;;;;;5081130;28;20567;-71
2022/11/05 07:44:23;;;;;;;0.20;0.20;;;7.30;99.90;;;;;;5076866;28;20430;-71
2022/11/05 07:46:49;;;;;;;0.20;0.20;;;7.40;99.90;;;;;;5064444;28;20670;-71
2022/11/05 07:49:16;;;;;;;0.15;0.15;;;7.20;99.90;;;;;;5072125;28;20044;-71
2022/11/05 07:51:41;;;;;;;0.20;0.20;;;7.20;99.90;;;;;;5069554;28;20488;-71
2022/11/05 07:54:07;;;;;;;0.20;0.20;;;7.30;99.90;;;;;;5071074;28;20087;-70
2022/11/05 07:56:33;;;;;;;0.15;0.15;;;7.30;99.90;;;;;;5077362;28;20040;-71
2022/11/05 07:58:58;;;;;;;0.10;0.10;;;7.30;99.90;;;;;;5072838;28;20093;-69
2022/11/05 08:01:24;;;;;;;0.20;0.20;;;7.40;99.90;;;;;;5069026;28;20079;-69
2022/11/05 08:03:50;;;;;;;0.20;0.20;;;7.40;99.90;;;;;;5086304;28;20029;-69
2022/11/05 08:06:15;;;;;;;0.20;0.20;;;7.40;99.90;;;;;;5073836;28;20036;-70
2022/11/05 08:08:41;;;;;;;0.20;0.20;;;7.50;99.90;;;;;;5076313;28;20063;-71
2022/11/05 08:11:08;;;;;;;0.20;0.20;;;7.50;99.90;;;;;;5082638;28;20104;-71
2022/11/05 08:13:35;;;;;;;0.20;0.20;;;7.60;99.90;;;;;;5079139;28;20059;-71
2022/11/05 08:16:02;;;;;;;0.20;0.20;;;7.60;99.90;;;;;;5079346;28;20434;-70
2022/11/05 08:18:31;;;;;;;0.10;0.10;;;7.60;99.90;;;;;;5075426;28;20399;-70
2022/11/05 08:20:59;;;;;;;0.20;0.20;;;7.70;99.90;;;;;;5073744;28;20075;-69
2022/11/05 08:23:29;;;;;;;0.13;0.13;;;8.20;99.90;;;;;;5077755;28;20052;-70
2022/11/05 08:26:00;;;;;;;0.20;0.20;;;7.80;99.90;;;;;;5080919;28;20314;-70
2022/11/05 08:28:26;;;;;;;0.20;0.20;;;7.80;99.90;;;;;;5075697;28;20052;-70
2022/11/05 08:30:54;;;;;;;0.10;0.10;;;7.80;99.90;;;;;;5074471;28;20040;-70
2022/11/05 08:33:21;;;;;;;0.20;0.20;;;7.90;99.90;;;;;;5073756;28;20119;-69
2022/11/05 08:35:47;;;;;;;0.20;0.20;;;8.40;99.90;;;;;;5072370;28;20035;-70
2022/11/05 08:38:16;;;;;;;0.20;0.20;;;8.00;99.90;;;;;;5071635;28;20048;-69
2022/11/05 08:40:43;;;;;;;0.20;0.20;;;8.00;99.90;;;;;;5082533;28;20436;-70
2022/11/05 08:43:11;;;;;;;0.20;0.20;;;8.10;99.90;;;;;;5068761;28;20487;-70
2022/11/05 08:45:38;;;;;;;0.20;0.20;;;8.20;99.90;;;;;;5070994;28;20060;-70
2022/11/05 08:48:09;;;;;;;0.20;0.20;;;8.40;99.90;;;;;;5075731;28;20028;-70
2022/11/05 08:50:35;;;;;;;0.10;0.10;;;8.40;99.90;;;;;;5077587;28;20045;-70
2022/11/05 08:53:01;;;;;;;0.20;0.20;;;8.50;99.90;;;;;;5081188;28;20040;-70
2022/11/05 08:55:30;;;;;;;0.20;0.20;;;8.70;99.90;;;;;;5073706;28;20051;-70
2022/11/05 08:58:00;;;;;;;0.20;0.20;;;8.70;99.90;;;;;;5072817;28;20063;-70
2022/11/05 09:00:27;;;;;;;0.10;0.10;;;8.80;99.90;;;;;;5072410;28;20051;-70
2022/11/05 09:02:53;;;;;;;0.20;0.20;;;9.50;99.90;;;;;;5074823;28;20111;-69
2022/11/05 09:05:19;;;;;;;0.10;0.10;;;8.90;99.90;;;;;;5081236;28;20118;-70
2022/11/05 09:07:45;;;;;;;0.10;0.10;;;8.90;99.90;;;;;;5090431;28;20046;-70
2022/11/05 09:10:11;;;;;;;0.20;0.20;;;9.00;99.90;;;;;;5084782;28;20415;-70
2022/11/05 09:12:37;;;;;;;0.10;0.10;;;9.10;99.90;;;;;;5072353;28;20048;-70
2022/11/05 09:15:03;;;;;;;0.10;0.10;;;9.20;99.90;;;;;;5078131;28;20148;-70
2022/11/05 09:17:29;;;;;;;0.20;0.20;;;9.30;99.90;;;;;;5084723;28;20039;-70
2022/11/05 09:19:54;;;;;;;0.10;0.10;;;9.30;99.90;;;;;;5081559;28;20044;-70
2022/11/05 09:22:20;;;;;;;0.10;0.10;;;9.60;99.90;;;;;;5079138;28;20028;-70
2022/11/05 09:24:45;;;;;;;0.20;0.20;;;9.50;99.90;;;;;;5073326;28;20041;-70
2022/11/05 09:27:13;;;;;;;0.20;0.20;;;9.60;99.90;;;;;;5071475;28;20037;-70
2022/11/05 09:29:40;;;;;;;0.20;0.20;;;9.70;99.90;;;;;;5070217;28;20049;-70
2022/11/05 09:32:08;;;;;;;0.20;0.20;;;9.80;99.90;;;;;;5088060;28;20032;-70
2022/11/05 09:34:34;;;;;;;0.20;0.20;;;9.80;99.90;;;;;;5091917;28;20098;-70
2022/11/05 09:37:00;;;;;;;0.20;0.20;;;9.90;99.90;;;;;;5093544;28;20051;-70
2022/11/05 09:39:26;;;;;;;0.10;0.10;;;10.00;99.90;;;;;;5075189;28;20434;-70
2022/11/05 09:42:01;;;;;;;0.20;0.20;;;10.50;99.90;;;;;;5074212;28;20155;-70
2022/11/05 09:44:46;;;;;;;0.10;0.10;;;10.20;99.90;;;;;;5073220;28;20388;-70
2022/11/05 09:47:41;;;;;;;0.20;0.20;;;10.30;99.90;;;;;;5078247;28;20705;-70
2022/11/05 09:50:09;;;;;;;0.20;0.20;;;;;;;;;;5070227;28;20052;-71
2022/11/05 09:52:35;;;;;;;0.20;0.20;;;;;;;;;;5075941;28;20641;-71
2022/11/05 09:55:02;;;;;;;0.20;0.20;;;;;;;;;;5083383;28;20387;-70
2022/11/05 09:57:43;;;;;;;0.13;0.13;;;;;;;;;;5073838;28;20047;-70
2022/11/05 10:00:15;;;;;;;0.20;0.20;;;;;;;;;;5100726;28;20055;-70
2022/11/05 10:02:55;;;;;;;0.10;0.10;;;;;;;;;;5112184;28;20039;-70
2022/11/05 10:05:22;;;;;;;0.10;0.10;;;;;;;;;;5090664;28;20041;-69
2022/11/05 10:07:59;;;;;;;0.20;0.20;;;;;;;;;;5077481;28;20067;-70
2022/11/05 10:10:25;;;;;;;0.13;0.13;;;;;;;;;;5073777;28;20036;-70
2022/11/05 10:12:53;;;;;;;0.10;0.10;;;;;;;;;;5075942;28;20096;-70
2022/11/05 10:15:29;;;;;;;0.10;0.10;;;;;;;;;;5076064;28;20131;-69
2022/11/05 10:17:58;;;;;;;0.20;0.20;;;;;;;;;;5071087;28;20108;-70
2022/11/05 10:20:37;;;;;;;0.10;0.10;;;;;;;;;;5077620;28;20055;-70
2022/11/05 10:23:14;;;;;;;0.20;0.20;;;;;;;;;;5079448;28;20097;-71
2022/11/05 10:25:46;;;;;;;0.10;0.10;;;;;;;;;;5076254;28;20051;-72
2022/11/05 10:28:20;;;;;;;0.20;0.20;;;;;;;;;;5074424;28;20051;-71
2022/11/05 10:30:47;;;;;;;0.20;0.20;;;;;;;;;;5090258;28;20133;-72
2022/11/05 10:33:16;;;;;;;0.20;0.20;;;;;;;;;;5081062;28;20193;-72
2022/11/05 10:35:54;;;;;;;0.20;0.20;;;;;;;;;;5080276;28;20159;-73
2022/11/05 10:38:20;;;;;;;0.20;0.20;;;;;;;;;;5081424;28;20036;-72
2022/11/05 10:41:05;;;;;;;0.10;0.10;;;;;;;;;;5086196;28;20044;-77
2022/11/05 10:43:37;;;;;;;0.10;0.10;;;;;;;;;;5069156;28;22256;-73
2022/11/05 10:46:23;;;;;;;0.20;0.20;;;;;;;;;;5077174;28;20044;-73
2022/11/05 10:48:57;;;;;;;0.10;0.10;;;;;;;;;;5080594;28;20086;-72
2022/11/05 10:51:23;;;;;;;0.10;0.10;;;;;;;;;;5087156;28;20121;-72
2022/11/05 10:53:56;;;;;;;0.10;0.10;;;;;;;;;;5119014;27;20052;-72
2022/11/05 10:56:33;;;;;;;0.20;0.20;;;;;;;;;;5071800;28;20041;-71
2022/11/05 10:59:01;;;;;;;0.20;0.20;;;;;;;;;;5074418;28;20039;-72
2022/11/05 11:01:28;;;;;;;0.15;0.15;;;;;;;;;;5070891;28;20044;-70
2022/11/05 11:04:13;;;;;;;0.20;0.20;;;;;;;;;;5069193;28;20109;-72
2022/11/05 11:06:43;;;;;;;0.20;0.20;;;;;;;;;;5080078;28;20040;-72
2022/11/05 11:09:17;;;;;;;0.10;0.10;;;;;;;;;;5080584;28;20070;-73
2022/11/05 11:11:44;;;;;;;0.17;0.17;;;;;;;;;;5069733;28;20109;-73
2022/11/05 11:14:13;;;;;;;0.20;0.20;;;;;;;;;;5070791;28;20048;-73
2022/11/05 11:16:40;;;;;;;0.13;0.13;;;;;;;;;;5081885;28;20041;-71
2022/11/05 11:19:25;;;;;;;0.20;0.20;;;;;;;;;;5079813;28;20681;-71
2022/11/05 11:22:03;;;;;;;0.10;0.10;;;;;;;;;;5084991;28;20036;-71
2022/11/05 11:24:29;;;;;;;0.13;0.13;;;;;;;;;;5078620;28;20051;-72
2022/11/05 11:27:01;;;;;;;0.10;0.10;;;;;;;;;;5075753;28;20407;-72
2022/11/05 11:29:28;;;;;;;0.20;0.20;;;;;;;;;;5091372;28;20060;-73
2022/11/05 11:31:56;;;;;;;0.13;0.13;;;;;;;;;;5077497;28;20400;-73
2022/11/05 11:34:28;;;;;;;0.20;0.20;;;;;;;;;;5075290;28;20044;-73
2022/11/05 11:36:56;;;;;;;0.10;0.10;;;;;;;;;;5076399;28;20052;-73
2022/11/05 11:39:24;;;;;;;0.10;0.10;;;;;;;;;;5084847;28;20085;-73
2022/11/05 11:41:55;;;;;;;0.10;0.10;;;;;;;;;;5079481;28;20597;-73
2022/11/05 11:44:29;;;;;;;0.20;0.20;;;;;;;;;;5084182;28;20048;-73
2022/11/05 11:47:01;;;;;;;0.10;0.10;;;;;;;;;;5088987;28;20481;-74
2022/11/05 11:49:33;;;;;;;0.10;0.10;;;;;;;;;;5081691;28;20051;-73
2022/11/05 11:52:10;;;;;;;0.10;0.10;;;;;;;;;;5114804;27;20647;-74
2022/11/05 11:54:36;;;;;;;0.10;0.10;;;;;;;;;;5083467;28;20051;-74
2022/11/05 11:57:02;;;;;;;0.20;0.20;;;;;;;;;;5077481;28;20044;-72
2022/11/05 11:59:30;;;;;;;0.20;0.20;;;;;;;;;;5079406;28;22057;-72
2022/11/05 12:02:19;;;;;;;0.20;0.20;;;;;;;;;;5075033;28;20518;-73
2022/11/05 12:04:48;;;;;;;0.20;0.20;;;;;;;;;;5068052;28;20048;-73
2022/11/05 12:07:33;;;;;;;0.10;0.10;;;;;;;;;;5080177;28;20121;-73
2022/11/05 12:10:17;;;;;;;0.20;0.20;;;;;;;;;;5071945;28;20056;-72
2022/11/05 12:12:50;;;;;;;0.20;0.20;;;;;;;;;;5070054;28;20045;-72
2022/11/05 12:15:35;;;;;;;0.10;0.10;;;;;;;;;;5076280;28;20048;-73
2022/11/05 12:18:02;;;;;;;0.20;0.20;;;;;;;;;;5081559;28;20086;-72
2022/11/05 12:20:37;;;;;;;0.10;0.10;;;;;;;;;;5068553;28;20432;-72
2022/11/05 12:23:03;;;;;;;0.10;0.10;;;;;;;;;;5087534;28;20499;-72
2022/11/05 12:25:38;;;;;;;0.20;0.20;;;;;;;;;;5075016;28;20055;-72
2022/11/05 12:28:21;;;;;;;0.15;0.15;;;;;;;;;;5082328;28;20816;-72
2022/11/05 12:30:50;;;;;;;0.10;0.10;;;;;;;;;;5077826;28;20097;-72
2022/11/05 12:33:25;;;;;;;0.10;0.10;;;;;;;;;;5089908;28;20063;-74
2022/11/05 12:36:01;;;;;;;0.17;0.17;;;;;;;;;;5088700;28;20483;-72
2022/11/05 12:38:33;;;;;;;0.15;0.15;;;;;;;;;;5093325;28;20044;-72
2022/11/05 12:41:10;;;;;;;0.15;0.15;;;;;;;;;;5080401;28;20044;-73
2022/11/05 12:43:45;;;;;;;0.10;0.10;;;;;;;;;;5076205;28;20413;-72
2022/11/05 12:46:18;;;;;;;0.20;0.20;;;;;;;;;;5089679;28;20369;-72
2022/11/05 12:49:02;;;;;;;0.10;0.10;;;;;;;;;;5091171;28;20158;-73
2022/11/05 12:51:47;;;;;;;0.10;0.10;;;;;;;;;;5081268;28;20129;-72
2022/11/05 12:54:32;;;;;;;0.13;0.13;;;;;;;;;;5072151;28;20044;-72
2022/11/05 12:57:01;;;;;;;0.20;0.20;;;;;;;;;;5070934;28;20530;-72
2022/11/05 12:59:31;;;;;;;0.20;0.20;;;;;;;;;;5072577;28;20041;-72
2022/11/05 13:02:10;;;;;;;0.20;0.20;;;;;;;;;;5088478;28;20051;-72
2022/11/05 13:04:39;;;;;;;0.20;0.20;;;;;;;;;;5092536;28;20044;-72
2022/11/05 13:07:10;;;;;;;0.10;0.10;;;;;;;;;;5078168;28;20063;-72
2022/11/05 13:09:46;;;;;;;0.20;0.20;;;;;;;;;;5078465;28;20509;-72
2022/11/05 13:12:15;;;;;;;0.20;0.20;;;;;;;;;;5090773;28;20118;-72
2022/11/05 13:14:44;;;;;;;0.20;0.20;;;;;;;;;;5096923;28;20039;-73
2022/11/05 13:17:12;;;;;;;0.10;0.10;;;;;;;;;;5089581;28;20528;-72
2022/11/05 13:20:00;;;;;;;0.20;0.20;;;;;;;;;;5080696;28;20373;-72
2022/11/05 13:22:29;;;;;;;0.10;0.10;;;;;;;;;;5087618;28;20090;-73
2022/11/05 13:24:58;;;;;;;0.20;0.20;;;;;;;;;;5090667;28;20105;-73
2022/11/05 13:27:42;;;;;;;0.10;0.10;;;;;;;;;;5091250;28;20558;-72
2022/11/05 13:30:13;;;;;;;0.20;0.20;;;;;;;;;;5089303;28;20055;-72
2022/11/05 13:32:41;;;;;;;0.10;0.10;;;;;;;;;;5076757;28;20519;-72
2022/11/05 13:35:14;;;;;;;0.10;0.10;;;;;;;;;;5092014;28;20463;-73
2022/11/05 13:40:38;;;;;;;0.20;0.20;;;;;;;;;;5080098;28;20099;-72
2022/11/05 13:43:12;;;;;;;0.10;0.10;;;;;;;;;;5088586;28;20495;-72
2022/11/05 13:45:59;;;;;;;0.20;0.20;;;;;;;;;;5087291;28;20101;-74
2022/11/05 13:48:25;;;;;;;0.10;0.10;;;;;;;;;;5070293;28;20063;-71
2022/11/05 13:51:01;;;;;;;0.20;0.20;;;;;;;;;;5090694;28;20050;-72
2022/11/05 13:53:46;;;;;;;0.10;0.10;;;;;;;;;;5087477;28;20288;-73
2022/11/05 13:56:19;;;;;;;0.10;0.10;;;;;;;;;;5084788;28;20056;-73
2022/11/05 13:59:00;;;;;;;0.20;0.20;;;;;;;;;;5088658;28;20110;-71
2022/11/05 14:01:31;;;;;;;0.10;0.10;;;;;;;;;;5092075;28;20062;-73
2022/11/05 14:03:57;;;;;;;0.20;0.20;;;;;;;;;;5091215;28;20055;-75
2022/11/05 14:06:34;;;;;;;0.10;0.10;;;;;;;;;;5089775;28;20074;-73
2022/11/05 14:09:02;;;;;;;0.10;0.10;;;;;;;;;;5090860;28;20411;-73
2022/11/05 14:11:39;;;;;;;0.20;0.20;;;;;;;;;;5089679;28;20047;-73
2022/11/05 14:14:15;;;;;;;0.20;0.20;;;;;;;;;;5085723;28;20101;-71
2022/11/05 14:17:00;;;;;;;0.15;0.15;;;;;;;;;;5070229;28;20059;-73
2022/11/05 14:19:32;;;;;;;0.20;0.20;;;;;;;;;;5071235;28;20576;-73
2022/11/05 14:21:59;;;;;;;0.20;0.20;;;;;;;;;;5075227;28;20040;-73
2022/11/05 14:24:25;;;;;;;0.10;0.10;;;;;;;;;;5090118;28;20047;-73
2022/11/05 14:27:00;;;;;;;0.10;0.10;;;;;;;;;;5089043;28;20036;-72
2022/11/05 14:29:43;;;;;;;0.20;0.20;;;;;;;;;;5078933;28;20562;-72
2022/11/05 14:32:18;;;;;;;0.10;0.10;;;;;;;;;;5069278;28;20131;-71